Time;durP1;ratioP1;P1;durP2;ratioP2;P2;SDS_P1;SDS_P2;PMS_P1;PMS_P2;Temp;Humidity;BMP_temperature;BMP_pressure;BME280_temperature;BME280_humidity;BME280_pressure;Samples;Min_cycle;Max_cycle;Signal;HPM_P1;HPM_P2
2022/07/05 00:02:03;;;;;;;6.03;1.80;;;17.00;1.00;;;;;;5075297;28;20574;-72
2022/07/05 00:04:29;;;;;;;2.10;1.83;;;16.90;1.00;;;;;;5073078;28;20575;-72
2022/07/05 00:09:38;;;;;;;5.30;2.10;;;16.90;1.00;;;;;;5076489;28;20515;-72
2022/07/05 00:12:04;;;;;;;2.97;2.20;;;16.90;1.00;;;;;;5073769;28;20427;-73
2022/07/05 00:14:30;;;;;;;8.73;2.00;;;16.80;1.00;;;;;;5065535;28;20201;-73
2022/07/05 00:16:56;;;;;;;2.93;1.80;;;16.70;1.00;;;;;;5069492;28;20184;-72
2022/07/05 00:19:22;;;;;;;6.13;2.00;;;16.70;1.00;;;;;;5074103;28;20490;-72
2022/07/05 00:21:48;;;;;;;13.23;1.50;;;16.70;1.00;;;;;;5082987;28;20457;-73
2022/07/05 00:24:13;;;;;;;2.20;2.00;;;16.60;1.00;;;;;;5077735;28;20185;-73
2022/07/05 00:26:40;;;;;;;2.50;1.60;;;16.60;1.00;;;;;;5071789;28;20189;-73
2022/07/05 00:29:05;;;;;;;2.70;2.00;;;16.60;1.00;;;;;;5075999;28;20233;-73
2022/07/05 00:31:31;;;;;;;4.00;1.80;;;16.50;1.00;;;;;;5074844;28;20433;-73
2022/07/05 00:33:56;;;;;;;4.40;1.83;;;16.50;1.00;;;;;;5080626;28;20217;-73
2022/07/05 00:36:22;;;;;;;1.93;1.70;;;16.50;1.00;;;;;;5072125;28;20678;-72
2022/07/05 00:38:52;;;;;;;2.33;1.50;;;16.50;1.00;;;;;;5064536;28;20206;-73
2022/07/05 00:41:18;;;;;;;6.80;2.20;;;16.40;1.00;;;;;;5076443;28;20189;-72
2022/07/05 00:44:03;;;;;;;3.10;1.90;;;16.40;1.00;;;;;;5074348;28;20422;-73
2022/07/05 00:46:29;;;;;;;5.33;1.90;;;16.40;1.00;;;;;;5071258;28;20642;-72
2022/07/05 00:48:56;;;;;;;3.50;1.83;;;16.30;1.00;;;;;;5087546;28;20700;-73
2022/07/05 00:51:22;;;;;;;2.43;1.73;;;16.30;1.00;;;;;;5069141;28;20508;-72
2022/07/05 00:53:49;;;;;;;2.80;1.50;;;16.20;1.00;;;;;;5072701;28;20466;-73
2022/07/05 00:56:17;;;;;;;6.63;1.83;;;16.20;1.00;;;;;;5074637;28;20426;-77
2022/07/05 00:58:46;;;;;;;2.50;1.70;;;16.20;1.00;;;;;;5071313;28;20905;-78
2022/07/05 01:01:45;;;;;;;3.07;1.80;;;16.10;1.00;;;;;;5067380;28;20510;-77
2022/07/05 01:05:03;;;;;;;7.33;2.30;;;16.10;1.00;;;;;;5070620;28;20419;-78
2022/07/05 01:07:52;;;;;;;4.80;1.70;;;16.10;1.00;;;;;;5076110;28;20428;-78
2022/07/05 01:10:57;;;;;;;5.60;1.80;;;16.00;1.00;;;;;;5068754;28;20418;-78
2022/07/05 01:13:23;;;;;;;6.03;2.20;;;16.00;1.00;;;;;;5067345;28;20428;-73
2022/07/05 01:15:49;;;;;;;2.30;2.10;;;15.90;1.00;;;;;;5079913;28;20990;-73
2022/07/05 01:18:16;;;;;;;4.27;2.03;;;15.90;1.00;;;;;;5075643;28;20504;-73
2022/07/05 01:20:52;;;;;;;4.40;1.93;;;15.90;1.00;;;;;;5061871;28;20195;-73
2022/07/05 01:23:18;;;;;;;3.63;1.80;;;15.80;1.00;;;;;;5088903;28;20462;-73
2022/07/05 01:25:46;;;;;;;3.50;2.13;;;15.70;1.00;;;;;;5072450;28;20497;-73
2022/07/05 01:28:16;;;;;;;4.13;1.67;;;15.70;1.00;;;;;;5080136;28;20438;-78
2022/07/05 01:34:51;;;;;;;4.30;1.63;;;15.60;1.00;;;;;;5061777;28;20530;-78
2022/07/05 01:37:34;;;;;;;2.80;2.03;;;15.60;1.00;;;;;;5073784;28;20940;-78
2022/07/05 01:40:10;;;;;;;3.53;1.97;;;15.50;1.00;;;;;;5060541;28;20413;-78
2022/07/05 01:43:04;;;;;;;2.40;2.20;;;15.50;1.00;;;;;;5054667;28;20396;-78
2022/07/05 01:49:05;;;;;;;6.60;2.20;;;15.40;1.00;;;;;;5055192;28;20435;-79
2022/07/05 01:51:39;;;;;;;4.20;1.90;;;15.40;1.00;;;;;;5065824;28;20951;-78
2022/07/05 01:54:05;;;;;;;5.90;1.63;;;15.30;1.00;;;;;;5055375;28;20461;-78
2022/07/05 01:56:57;;;;;;;1.90;1.50;;;15.20;1.00;;;;;;5064160;28;20420;-77
2022/07/05 02:02:58;;;;;;;3.30;2.07;;;15.20;1.00;;;;;;5079755;28;20403;-78
2022/07/05 02:05:34;;;;;;;1.80;1.70;;;15.10;1.00;;;;;;5073882;28;20400;-78
2022/07/05 02:08:27;;;;;;;2.90;2.10;;;15.10;1.00;;;;;;5062890;28;20409;-78
2022/07/05 02:11:39;;;;;;;2.57;1.80;;;15.10;1.00;;;;;;5068513;28;20418;-78
2022/07/05 02:14:22;;;;;;;2.37;1.80;;;15.00;1.00;;;;;;5072657;28;20982;-78
2022/07/05 02:20:57;;;;;;;5.20;2.00;;;15.00;1.00;;;;;;5059310;28;20452;-77
2022/07/05 02:23:39;;;;;;;4.37;1.90;;;14.90;1.00;;;;;;5059834;28;20418;-78
2022/07/05 02:26:39;;;;;;;2.63;1.97;;;15.00;1.00;;;;;;5054456;28;20404;-78
2022/07/05 02:29:10;;;;;;;3.90;2.27;;;14.70;1.00;;;;;;5062382;28;20476;-78
2022/07/05 02:31:45;;;;;;;5.60;2.10;;;14.70;1.00;;;;;;5060639;28;20406;-78
2022/07/05 02:34:16;;;;;;;2.60;1.83;;;14.70;1.00;;;;;;5074306;28;20487;-78
2022/07/05 02:40:22;;;;;;;3.97;1.93;;;14.60;1.00;;;;;;5068838;28;20959;-78
2022/07/05 02:42:47;;;;;;;2.13;1.87;;;14.60;1.00;;;;;;5067884;28;20404;-73
2022/07/05 02:45:13;;;;;;;2.33;1.80;;;14.60;1.00;;;;;;5069323;28;20917;-73
2022/07/05 02:47:38;;;;;;;1.90;1.70;;;14.60;1.00;;;;;;5073473;28;20179;-73
2022/07/05 02:50:09;;;;;;;5.40;2.00;;;14.60;1.00;;;;;;5067666;28;20166;-73
2022/07/05 02:52:35;;;;;;;2.70;2.00;;;14.60;1.00;;;;;;5067567;28;20571;-73
2022/07/05 02:55:04;;;;;;;3.90;1.80;;;14.50;1.00;;;;;;5072467;28;20798;-73
2022/07/05 02:57:30;;;;;;;5.53;2.50;;;14.50;1.00;;;;;;5071825;28;20755;-73
2022/07/05 02:59:57;;;;;;;3.77;2.33;;;14.50;1.00;;;;;;5084648;28;20391;-73
2022/07/05 03:02:28;;;;;;;2.87;2.20;;;14.40;1.00;;;;;;5074850;28;20571;-73
2022/07/05 03:04:53;;;;;;;5.87;2.27;;;14.40;1.00;;;;;;5061167;28;20753;-73
2022/07/05 03:07:19;;;;;;;2.97;2.20;;;14.40;1.00;;;;;;5056821;28;20429;-73
2022/07/05 03:09:45;;;;;;;4.03;2.43;;;14.40;1.00;;;;;;5069261;28;20512;-73
2022/07/05 03:12:33;;;;;;;3.43;2.50;;;14.30;1.00;;;;;;5078629;28;20175;-73
2022/07/05 03:14:59;;;;;;;2.33;2.13;;;14.30;1.00;;;;;;5087114;28;20201;-73
2022/07/05 03:17:40;;;;;;;4.20;1.80;;;14.30;1.00;;;;;;5059282;28;20432;-73
2022/07/05 03:20:06;;;;;;;2.40;2.20;;;14.20;1.00;;;;;;5072144;28;20186;-73
2022/07/05 03:22:34;;;;;;;6.00;2.77;;;14.20;1.00;;;;;;5073300;28;20725;-73
2022/07/05 03:25:00;;;;;;;2.97;2.70;;;14.20;1.00;;;;;;5086660;28;20421;-73
2022/07/05 03:27:28;;;;;;;3.93;2.47;;;14.20;1.00;;;;;;5070367;28;20383;-72
2022/07/05 03:29:58;;;;;;;3.30;2.33;;;14.20;1.00;;;;;;5089357;28;20427;-73
2022/07/05 03:32:23;;;;;;;1.97;1.87;;;14.20;1.00;;;;;;5081693;28;20993;-73
2022/07/05 03:34:49;;;;;;;3.73;2.20;;;14.10;1.00;;;;;;5090428;28;20547;-73
2022/07/05 03:37:15;;;;;;;3.97;2.10;;;14.10;1.00;;;;;;5063226;28;20237;-73
2022/07/05 03:39:40;;;;;;;10.30;3.07;;;14.10;1.00;;;;;;5084012;28;20304;-73
2022/07/05 03:42:06;;;;;;;3.90;2.17;;;14.10;1.00;;;;;;5073172;28;20387;-73
2022/07/05 03:48:15;;;;;;;8.87;2.27;;;14.00;1.00;;;;;;5070750;28;20451;-78
2022/07/05 03:50:41;;;;;;;5.10;2.50;;;14.00;1.00;;;;;;5051824;28;20404;-77
2022/07/05 03:59:50;;;;;;;3.17;2.43;;;13.90;1.00;;;;;;5070328;28;20427;-81
2022/07/05 04:15:43;;;;;;;3.83;2.63;;;14.00;1.00;;;;;;5070460;28;20450;-79
2022/07/05 04:21:57;;;;;;;6.50;2.17;;;14.00;1.00;;;;;;5069078;28;20186;-79
2022/07/05 04:37:41;;;;;;;2.40;2.30;;;14.20;1.00;;;;;;5056670;28;20452;-85
2022/07/05 04:40:16;;;;;;;2.57;2.37;;;14.30;1.00;;;;;;5056938;28;20426;-85
2022/07/05 04:46:03;;;;;;;5.23;2.60;;;14.50;1.00;;;;;;5070577;28;20466;-85
2022/07/05 04:55:13;;;;;;;4.40;2.60;;;14.60;1.00;;;;;;5056234;28;20435;-85
2022/07/05 04:57:54;;;;;;;6.50;3.00;;;14.70;1.00;;;;;;5070750;28;20384;-85
2022/07/05 05:00:28;;;;;;;4.57;3.13;;;14.80;1.00;;;;;;5076436;28;20251;-85
2022/07/05 05:03:10;;;;;;;4.83;3.40;;;14.90;1.00;;;;;;5075092;28;20795;-85
2022/07/05 05:15:41;;;;;;;2.30;2.10;;;15.30;1.00;;;;;;5057107;28;20464;-79
2022/07/05 05:21:28;;;;;;;3.13;2.10;;;15.50;1.00;;;;;;5068171;28;20193;-87
2022/07/05 05:27:16;;;;;;;5.33;2.40;;;15.70;1.00;;;;;;5075733;28;20235;-86
2022/07/05 05:29:58;;;;;;;3.90;2.10;;;15.90;1.00;;;;;;5074731;28;20401;-86
2022/07/05 05:32:51;;;;;;;2.30;2.13;;;16.00;1.00;;;;;;5060629;28;20181;-86
2022/07/05 05:35:45;;;;;;;4.60;2.20;;;16.10;1.00;;;;;;5066912;28;20472;-86
2022/07/05 05:48:17;;;;;;;2.33;2.23;;;16.90;1.00;;;;;;5065273;28;20888;-81
2022/07/05 05:51:04;;;;;;;31.77;2.57;;;17.00;1.00;;;;;;5061288;28;20422;-83
2022/07/05 05:53:40;;;;;;;4.10;2.23;;;17.20;1.00;;;;;;5063289;28;20244;-81
2022/07/05 05:56:16;;;;;;;5.73;2.93;;;17.40;1.00;;;;;;5071353;28;20426;-81
2022/07/05 06:02:03;;;;;;;8.80;2.10;;;17.70;1.00;;;;;;5064125;28;20456;-81
2022/07/05 06:05:04;;;;;;;3.80;2.00;;;17.90;1.00;;;;;;5060899;28;20965;-81
2022/07/05 06:11:10;;;;;;;3.00;1.80;;;18.30;1.00;;;;;;5065743;28;20761;-81
2022/07/05 06:13:57;;;;;;;5.73;2.00;;;18.60;1.00;;;;;;5069748;28;20432;-85
2022/07/05 06:23:10;;;;;;;12.27;2.50;;;19.10;1.00;;;;;;5074672;28;20919;-89
2022/07/05 06:26:15;;;;;;;7.50;1.83;;;19.30;1.00;;;;;;5073437;28;20477;-89
2022/07/05 06:32:03;;;;;;;7.20;2.63;;;19.70;1.00;;;;;;5071151;28;20790;-82
2022/07/05 06:34:34;;;;;;;1.83;1.73;;;19.90;1.00;;;;;;5074961;28;20465;-81
2022/07/05 06:40:33;;;;;;;3.27;1.60;;;20.20;1.00;;;;;;5084256;28;20971;-82
2022/07/05 06:46:20;;;;;;;9.93;2.23;;;20.60;1.00;;;;;;5054335;28;20391;-88
2022/07/05 06:48:46;;;;;;;4.40;2.03;;;20.80;1.00;;;;;;5053171;28;20415;-89
2022/07/05 06:51:28;;;;;;;5.47;2.40;;;21.00;1.00;;;;;;5060200;28;20272;-88
2022/07/05 06:54:09;;;;;;;2.30;2.07;;;21.10;1.00;;;;;;5069252;28;20307;-88
2022/07/05 07:00:05;;;;;;;6.23;2.20;;;21.40;1.00;;;;;;5067297;28;20753;-89
2022/07/05 07:09:45;;;;;;;4.10;2.20;;;21.90;1.00;;;;;;5054558;28;20394;-79
2022/07/05 07:12:22;;;;;;;10.13;2.27;;;22.10;1.00;;;;;;5072767;28;20432;-84
2022/07/05 07:14:47;;;;;;;12.87;2.00;;;22.20;1.00;;;;;;5073305;28;20521;-73
2022/07/05 07:17:16;;;;;;;3.37;1.97;;;22.40;1.00;;;;;;5087070;28;20412;-75
2022/07/05 07:19:46;;;;;;;4.57;2.03;;;22.50;1.00;;;;;;5073408;28;20186;-75
2022/07/05 07:22:16;;;;;;;3.03;1.90;;;22.70;1.00;;;;;;5073745;28;20417;-76
2022/07/05 07:24:46;;;;;;;3.90;2.00;;;22.80;1.00;;;;;;5084872;28;20471;-74
2022/07/05 07:27:12;;;;;;;2.70;1.83;;;23.00;1.00;;;;;;5073906;28;20430;-73
2022/07/05 07:29:39;;;;;;;5.53;2.03;;;23.00;1.00;;;;;;5072894;28;20461;-72
2022/07/05 07:32:06;;;;;;;6.97;2.47;;;23.20;1.00;;;;;;5072635;28;21059;-72
2022/07/05 07:37:54;;;;;;;3.17;2.10;;;23.40;1.00;;;;;;5060037;28;20481;-71
2022/07/05 07:40:19;;;;;;;7.23;1.77;;;23.50;1.00;;;;;;5074611;28;20427;-70
2022/07/05 07:42:45;;;;;;;3.37;1.77;;;23.70;1.00;;;;;;5076592;28;20185;-71
2022/07/05 07:45:11;;;;;;;3.37;1.90;;;23.80;1.00;;;;;;5076669;28;20492;-71
2022/07/05 07:47:37;;;;;;;6.27;1.97;;;23.90;1.00;;;;;;5070996;28;20279;-71
2022/07/05 07:50:04;;;;;;;3.47;1.90;;;24.00;1.00;;;;;;5063559;28;20196;-71
2022/07/05 07:52:33;;;;;;;11.40;2.20;;;24.10;1.00;;;;;;5073437;28;20430;-71
2022/07/05 07:54:58;;;;;;;5.40;1.97;;;24.20;1.00;;;;;;5088696;28;20464;-71
2022/07/05 07:57:24;;;;;;;3.80;2.10;;;24.30;1.00;;;;;;5059690;28;20440;-71
2022/07/05 07:59:50;;;;;;;3.67;1.97;;;24.20;1.00;;;;;;5077094;28;20228;-74
2022/07/05 08:02:28;;;;;;;2.20;2.00;;;24.20;1.00;;;;;;5090006;28;20442;-74
2022/07/05 08:04:53;;;;;;;6.03;1.93;;;24.10;1.00;;;;;;5085908;28;20524;-74
2022/07/05 08:07:19;;;;;;;2.33;1.90;;;24.20;1.00;;;;;;5075212;28;20432;-74
2022/07/05 08:09:46;;;;;;;5.97;1.73;;;24.30;1.00;;;;;;5064913;28;20187;-74
2022/07/05 08:12:16;;;;;;;1.70;1.60;;;24.40;1.00;;;;;;5079131;28;20305;-74
2022/07/05 08:14:42;;;;;;;1.83;1.70;;;24.50;1.00;;;;;;5074947;28;20516;-72
2022/07/05 08:17:08;;;;;;;5.77;2.03;;;24.60;1.00;;;;;;5073987;28;20893;-74
2022/07/05 08:22:31;;;;;;;6.63;1.77;;;24.90;1.00;;;;;;5082508;28;20442;-75
2022/07/05 08:24:58;;;;;;;4.13;1.57;;;25.00;1.00;;;;;;5083100;28;20438;-75
2022/07/05 08:27:24;;;;;;;2.63;1.80;;;25.10;1.00;;;;;;5077019;28;20181;-75
2022/07/05 08:29:53;;;;;;;3.60;1.87;;;24.80;1.00;;;;;;5082736;28;20778;-70
2022/07/05 08:32:18;;;;;;;4.83;1.97;;;24.80;1.00;;;;;;5075900;28;20426;-71
2022/07/05 08:34:44;;;;;;;1.67;1.40;;;24.80;1.00;;;;;;5076011;28;20818;-71
2022/07/05 08:37:16;;;;;;;9.17;1.87;;;24.80;1.00;;;;;;5075582;28;20655;-74
2022/07/05 08:39:42;;;;;;;7.20;1.90;;;24.90;1.00;;;;;;5077138;28;20180;-72
2022/07/05 08:42:10;;;;;;;2.40;1.40;;;25.10;1.00;;;;;;5069598;28;20439;-71
2022/07/05 08:44:38;;;;;;;5.90;1.70;;;25.20;1.00;;;;;;5075843;28;20418;-71
2022/07/05 08:47:11;;;;;;;2.40;1.40;;;25.30;1.00;;;;;;5079517;28;20434;-74
2022/07/05 08:49:40;;;;;;;2.47;1.43;;;25.40;1.00;;;;;;5085088;28;20413;-75
2022/07/05 08:52:12;;;;;;;3.27;1.40;;;25.50;1.00;;;;;;5076499;28;20512;-74
2022/07/05 08:54:39;;;;;;;1.80;1.27;;;25.80;1.00;;;;;;5063832;28;20454;-74
2022/07/05 08:57:05;;;;;;;4.00;1.20;;;25.90;1.00;;;;;;5072327;28;20444;-75
2022/07/05 08:59:34;;;;;;;7.83;1.53;;;26.10;1.00;;;;;;5075618;28;20898;-75
2022/07/05 09:02:01;;;;;;;2.43;1.23;;;26.10;1.00;;;;;;5080821;28;20438;-71
2022/07/05 09:04:31;;;;;;;3.90;1.57;;;26.30;1.00;;;;;;5074967;28;20788;-71
2022/07/05 09:07:04;;;;;;;4.00;1.30;;;26.60;1.00;;;;;;5075274;28;20428;-71
2022/07/05 09:09:32;;;;;;;2.70;1.17;;;26.80;1.00;;;;;;5072351;28;20425;-71
2022/07/05 09:11:58;;;;;;;3.00;1.40;;;27.10;1.00;;;;;;5074857;28;20430;-71
2022/07/05 09:14:25;;;;;;;3.23;1.00;;;27.20;1.00;;;;;;5074693;28;20454;-71
2022/07/05 09:16:52;;;;;;;4.53;1.03;;;27.20;1.00;;;;;;5074893;28;22331;-76
2022/07/05 09:19:18;;;;;;;8.27;1.47;;;26.90;1.00;;;;;;5070469;28;20449;-71
2022/07/05 09:21:43;;;;;;;1.13;1.00;;;27.00;1.00;;;;;;5074830;28;20428;-71
2022/07/05 09:24:16;;;;;;;2.67;0.90;;;27.00;1.00;;;;;;5080367;28;20478;-74
2022/07/05 09:26:49;;;;;;;5.90;1.10;;;26.90;1.00;;;;;;5081453;28;20597;-72
2022/07/05 09:29:17;;;;;;;2.83;0.90;;;27.00;1.00;;;;;;5074684;28;20448;-71
2022/07/05 09:31:48;;;;;;;6.43;1.10;;;27.00;1.00;;;;;;5063262;28;20791;-71
2022/07/05 09:34:24;;;;;;;2.20;1.00;;;27.10;1.00;;;;;;5080371;28;20550;-72
2022/07/05 09:36:55;;;;;;;1.37;1.00;;;27.10;1.00;;;;;;5075118;28;20418;-71
2022/07/05 09:40:09;;;;;;;1.83;1.07;;;27.10;1.00;;;;;;5085171;28;20401;-78
2022/07/05 09:43:10;;;;;;;1.17;0.90;;;27.00;1.00;;;;;;5064774;28;20501;-78
2022/07/05 09:46:13;;;;;;;3.20;1.00;;;27.00;1.00;;;;;;5063001;28;20901;-77
2022/07/05 09:49:06;;;;;;;3.03;0.80;;;27.10;1.00;;;;;;5019608;28;20432;-78
2022/07/05 09:52:09;;;;;;;2.03;1.10;;;27.00;1.00;;;;;;5029534;28;20462;-78
2022/07/05 09:55:08;;;;;;;6.03;1.60;;;27.30;1.00;;;;;;5032611;28;20550;-78
2022/07/05 09:58:04;;;;;;;2.97;1.17;;;27.40;1.00;;;;;;5016009;28;20427;-78
2022/07/05 10:00:30;;;;;;;16.50;1.60;;;27.60;1.00;;;;;;5032548;28;20449;-75
2022/07/05 10:03:33;;;;;;;1.90;0.90;;;27.60;1.00;;;;;;5031966;28;20792;-80
2022/07/05 10:06:10;;;;;;;2.80;1.00;;;27.40;1.00;;;;;;5032653;28;20242;-74
2022/07/05 10:08:36;;;;;;;5.13;1.33;;;27.20;1.00;;;;;;5036011;28;20404;-75
2022/07/05 10:11:05;;;;;;;9.23;1.20;;;26.90;1.00;;;;;;5032071;28;20894;-74
2022/07/05 10:13:30;;;;;;;1.97;1.20;;;27.00;1.00;;;;;;5043473;28;20186;-74
2022/07/05 10:15:56;;;;;;;1.57;1.00;;;27.10;1.00;;;;;;5046024;28;20427;-71
2022/07/05 10:18:31;;;;;;;2.27;1.00;;;27.30;1.00;;;;;;5031889;28;20179;-71
2022/07/05 10:20:59;;;;;;;1.10;1.00;;;27.50;1.00;;;;;;5032060;28;20410;-71
2022/07/05 10:23:26;;;;;;;2.43;1.10;;;27.80;1.00;;;;;;5066454;28;20487;-72
2022/07/05 10:25:53;;;;;;;5.40;1.53;;;28.00;1.00;;;;;;5074044;28;20510;-71
2022/07/05 10:28:21;;;;;;;3.27;1.17;;;28.30;1.00;;;;;;5072843;28;20407;-74
2022/07/05 10:30:51;;;;;;;1.50;1.00;;;28.40;1.00;;;;;;5057247;28;20425;-75
2022/07/05 10:33:25;;;;;;;1.90;1.10;;;28.70;1.00;;;;;;5085197;28;20426;-75
2022/07/05 10:35:50;;;;;;;2.27;1.10;;;28.40;1.00;;;;;;5062015;28;20423;-75
2022/07/05 10:38:17;;;;;;;4.67;1.23;;;28.60;1.00;;;;;;5086070;28;20792;-75
2022/07/05 10:40:47;;;;;;;2.47;1.30;;;28.50;1.00;;;;;;5061926;28;20192;-75
2022/07/05 10:43:16;;;;;;;2.83;1.30;;;28.10;1.00;;;;;;5073121;28;20399;-75
2022/07/05 10:45:52;;;;;;;2.60;1.00;;;27.90;1.00;;;;;;5061010;28;20885;-75
2022/07/05 10:51:40;;;;;;;7.03;1.50;;;27.60;1.00;;;;;;5053794;28;20423;-81
2022/07/05 10:54:59;;;;;;;7.53;1.50;;;27.50;1.00;;;;;;5066709;28;20815;-81
2022/07/05 10:57:40;;;;;;;2.53;1.30;;;27.60;1.00;;;;;;5048147;28;20553;-81
2022/07/05 11:00:39;;;;;;;1.30;0.97;;;28.00;1.00;;;;;;5031701;28;20492;-81
2022/07/05 11:03:07;;;;;;;3.57;1.10;;;28.40;1.00;;;;;;5033002;28;20493;-75
2022/07/05 11:05:33;;;;;;;3.13;1.20;;;28.60;1.00;;;;;;5051450;28;20927;-75
2022/07/05 11:08:04;;;;;;;6.17;1.20;;;28.20;1.00;;;;;;5042137;28;20818;-75
2022/07/05 11:10:32;;;;;;;1.27;1.17;;;28.20;1.00;;;;;;5031283;28;20913;-75
2022/07/05 11:12:58;;;;;;;5.53;1.10;;;28.10;1.00;;;;;;5041964;28;20429;-75
2022/07/05 11:15:28;;;;;;;2.37;0.90;;;28.00;1.00;;;;;;5050729;28;20506;-75
2022/07/05 11:21:22;;;;;;;1.70;1.23;;;27.70;1.00;;;;;;5051217;28;20398;-81
2022/07/05 11:24:21;;;;;;;9.73;1.17;;;27.40;1.00;;;;;;5045303;28;20901;-81
2022/07/05 11:27:10;;;;;;;2.10;1.00;;;27.20;1.00;;;;;;5031416;28;21184;-81
2022/07/05 11:29:50;;;;;;;1.57;1.07;;;27.20;1.00;;;;;;5044683;28;20434;-81
2022/07/05 11:32:36;;;;;;;2.90;1.20;;;27.20;1.00;;;;;;5065475;28;20490;-81
2022/07/05 11:35:32;;;;;;;2.73;1.00;;;27.30;1.00;;;;;;5078006;28;20507;-81
2022/07/05 11:38:09;;;;;;;3.77;1.20;;;27.40;1.00;;;;;;5070144;28;20516;-81
2022/07/05 11:40:40;;;;;;;2.10;1.10;;;27.40;1.00;;;;;;5071909;28;20858;-80
2022/07/05 11:46:29;;;;;;;7.30;1.47;;;27.40;1.00;;;;;;5060536;28;20415;-80
2022/07/05 11:49:10;;;;;;;3.30;1.57;;;27.60;1.00;;;;;;5058878;28;20505;-81
2022/07/05 11:55:17;;;;;;;4.57;1.10;;;27.90;1.00;;;;;;5061843;28;20896;-81
2022/07/05 12:01:06;;;;;;;7.23;1.40;;;28.60;1.00;;;;;;5064908;28;20780;-80
2022/07/05 12:03:32;;;;;;;4.70;1.40;;;29.00;1.00;;;;;;5055644;28;20431;-75
2022/07/05 12:05:57;;;;;;;2.77;1.33;;;29.20;1.00;;;;;;5073075;28;20416;-75
2022/07/05 12:08:24;;;;;;;4.13;1.30;;;29.50;1.00;;;;;;5071161;28;20756;-75
2022/07/05 12:13:45;;;;;;;3.50;1.30;;;29.40;1.00;;;;;;5076559;28;20427;-75
2022/07/05 12:16:12;;;;;;;3.10;1.17;;;29.50;1.00;;;;;;5083683;28;20450;-75
2022/07/05 12:19:00;;;;;;;3.33;1.20;;;29.50;1.00;;;;;;5075085;28;20427;-75
2022/07/05 12:21:26;;;;;;;2.00;1.53;;;29.50;1.00;;;;;;5072477;28;20819;-75
2022/07/05 12:23:52;;;;;;;2.50;1.20;;;29.10;1.00;;;;;;5086238;28;20431;-75
2022/07/05 12:26:22;;;;;;;1.30;1.20;;;29.10;1.00;;;;;;5072871;28;20185;-74
2022/07/05 12:28:49;;;;;;;4.80;1.30;;;29.20;1.00;;;;;;5063791;28;20189;-75
2022/07/05 12:31:24;;;;;;;6.20;1.40;;;29.30;1.00;;;;;;5087232;28;20411;-75
2022/07/05 12:34:16;;;;;;;4.83;1.10;;;29.60;1.00;;;;;;5067960;28;20472;-81
2022/07/05 12:37:09;;;;;;;2.70;1.17;;;29.90;1.00;;;;;;5069481;28;20414;-81
2022/07/05 12:39:35;;;;;;;9.47;1.40;;;30.20;1.00;;;;;;5056453;28;20406;-81
2022/07/05 12:42:39;;;;;;;5.13;1.17;;;30.50;1.00;;;;;;5056160;28;20414;-81
2022/07/05 12:45:40;;;;;;;4.67;1.00;;;30.30;1.00;;;;;;5064464;28;20622;-81
2022/07/05 12:51:41;;;;;;;1.50;1.10;;;29.80;1.00;;;;;;5062832;28;20419;-81
2022/07/05 13:00:12;;;;;;;3.00;1.20;;;30.30;1.00;;;;;;5066855;28;20813;-81
2022/07/05 13:02:57;;;;;;;1.20;1.10;;;30.30;1.00;;;;;;5068688;28;20443;-80
2022/07/05 13:06:09;;;;;;;1.00;0.90;;;30.50;1.00;;;;;;5093777;28;20389;-81
2022/07/05 13:08:40;;;;;;;1.47;1.10;;;30.60;1.00;;;;;;5074006;28;20394;-81
2022/07/05 13:11:11;;;;;;;1.50;1.17;;;30.70;1.00;;;;;;5073648;28;20429;-81
2022/07/05 13:13:40;;;;;;;2.33;1.23;;;30.70;1.00;;;;;;5062007;28;20417;-81
2022/07/05 13:16:39;;;;;;;1.23;1.13;;;30.70;1.00;;;;;;5065162;28;20526;-81
2022/07/05 13:19:12;;;;;;;2.80;1.50;;;30.40;1.00;;;;;;5063434;28;20410;-75
2022/07/05 13:21:39;;;;;;;1.67;1.07;;;30.20;1.00;;;;;;5089118;28;20448;-75
2022/07/05 13:24:05;;;;;;;1.20;1.10;;;30.10;1.00;;;;;;5075242;28;20955;-75
2022/07/05 13:26:31;;;;;;;1.23;1.23;;;30.30;1.00;;;;;;5063382;28;20429;-74
2022/07/05 13:28:57;;;;;;;1.47;1.20;;;30.20;1.00;;;;;;5087220;28;20429;-74
2022/07/05 13:31:23;;;;;;;2.03;1.20;;;30.40;1.00;;;;;;5073621;28;20423;-75
2022/07/05 13:33:52;;;;;;;2.90;1.60;;;30.40;1.00;;;;;;5063852;28;20435;-75
2022/07/05 13:36:17;;;;;;;4.10;1.10;;;30.40;1.00;;;;;;5076798;28;20202;-75
2022/07/05 13:38:43;;;;;;;1.47;1.27;;;30.50;1.00;;;;;;5085320;28;20909;-75
2022/07/05 13:41:09;;;;;;;2.60;1.33;;;30.60;1.00;;;;;;5074995;28;20171;-76
2022/07/05 13:43:34;;;;;;;1.93;1.40;;;30.60;1.00;;;;;;5073470;28;20172;-75
2022/07/05 13:46:00;;;;;;;2.87;1.50;;;30.50;1.00;;;;;;5073352;28;20179;-75
2022/07/05 13:52:00;;;;;;;6.70;1.13;;;29.90;1.00;;;;;;5062933;28;20194;-81
2022/07/05 13:54:43;;;;;;;4.90;1.23;;;29.60;1.00;;;;;;5069937;28;20453;-81
2022/07/05 13:57:10;;;;;;;1.40;1.30;;;29.60;1.00;;;;;;5066157;28;20418;-81
2022/07/05 13:59:40;;;;;;;2.20;1.30;;;29.40;1.00;;;;;;5068119;28;20437;-81
2022/07/05 14:02:06;;;;;;;2.90;1.40;;;29.40;1.00;;;;;;5067092;28;20778;-81
2022/07/05 14:04:33;;;;;;;1.87;1.10;;;29.50;1.00;;;;;;5079651;28;20512;-74
2022/07/05 14:06:59;;;;;;;1.50;1.40;;;29.60;1.00;;;;;;5077231;28;20427;-75
2022/07/05 14:09:25;;;;;;;1.20;1.10;;;29.60;1.00;;;;;;5067972;28;20416;-75
2022/07/05 14:11:52;;;;;;;3.03;1.37;;;29.70;1.00;;;;;;5071511;28;20222;-74
2022/07/05 14:14:18;;;;;;;2.80;1.30;;;29.60;1.00;;;;;;5087816;28;20471;-75
2022/07/05 14:16:43;;;;;;;2.77;1.50;;;29.30;1.00;;;;;;5075106;28;20424;-75
2022/07/05 14:19:09;;;;;;;1.77;1.40;;;29.20;1.00;;;;;;5082640;28;20178;-75
2022/07/05 14:21:35;;;;;;;8.40;1.70;;;29.30;1.00;;;;;;5065265;28;20170;-74
2022/07/05 14:24:00;;;;;;;4.00;2.00;;;29.50;1.00;;;;;;5062116;28;20210;-72
2022/07/05 14:26:27;;;;;;;1.50;1.40;;;29.80;1.00;;;;;;5068239;28;20816;-72
2022/07/05 14:28:53;;;;;;;2.83;1.70;;;30.00;1.00;;;;;;5062959;28;20186;-71
2022/07/05 14:31:19;;;;;;;2.27;1.20;;;30.30;1.00;;;;;;5073509;28;20421;-73
2022/07/05 14:33:52;;;;;;;6.83;1.27;;;30.40;1.00;;;;;;5073687;28;20441;-76
2022/07/05 14:36:22;;;;;;;2.80;1.40;;;30.70;1.00;;;;;;5086770;28;20178;-77
2022/07/05 14:38:47;;;;;;;1.90;1.33;;;30.80;1.00;;;;;;5067454;28;20430;-75
2022/07/05 14:41:33;;;;;;;3.43;1.70;;;31.20;1.00;;;;;;5071555;28;20510;-76
2022/07/05 14:43:59;;;;;;;2.83;1.30;;;31.40;1.00;;;;;;5064336;28;20179;-74
2022/07/05 14:46:28;;;;;;;1.23;1.13;;;31.80;1.00;;;;;;5087030;28;20447;-76
2022/07/05 14:48:53;;;;;;;8.50;1.70;;;31.80;1.00;;;;;;5073387;28;20197;-75
2022/07/05 14:51:19;;;;;;;2.17;1.30;;;31.90;1.00;;;;;;5073748;28;20912;-77
2022/07/05 14:53:52;;;;;;;1.30;1.20;;;31.60;1.00;;;;;;5064369;28;20184;-77
2022/07/05 14:59:41;;;;;;;3.73;1.53;;;30.90;1.00;;;;;;5073498;28;20794;-75
2022/07/05 15:02:07;;;;;;;3.87;2.23;;;30.60;1.00;;;;;;5072993;28;20480;-75
2022/07/05 15:04:33;;;;;;;10.33;1.63;;;30.90;1.00;;;;;;5068927;28;20462;-71
2022/07/05 15:06:58;;;;;;;1.93;1.50;;;31.00;1.00;;;;;;5068362;28;20179;-73
2022/07/05 15:09:24;;;;;;;3.00;1.67;;;31.10;1.00;;;;;;5065259;28;20186;-76
2022/07/05 15:11:51;;;;;;;1.20;1.10;;;31.70;1.00;;;;;;5070758;28;20190;-74
2022/07/05 15:14:17;;;;;;;2.77;1.37;;;32.70;1.00;;;;;;5071252;28;20205;-73
2022/07/05 15:16:43;;;;;;;2.07;1.20;;;34.30;1.00;;;;;;5071771;28;20413;-74
2022/07/05 15:19:16;;;;;;;1.43;1.33;;;36.30;1.00;;;;;;5073762;28;20273;-77
2022/07/05 15:21:53;;;;;;;2.60;1.30;;;38.00;1.00;;;;;;5073067;28;20452;-78
2022/07/05 15:24:51;;;;;;;1.07;0.97;;;38.30;1.00;;;;;;5073456;28;20417;-78
2022/07/05 15:27:22;;;;;;;1.30;1.20;;;40.00;1.00;;;;;;5061460;28;20820;-78
2022/07/05 15:29:48;;;;;;;11.77;6.03;;;41.20;1.00;;;;;;5074515;28;20421;-78
2022/07/05 15:32:14;;;;;;;5.27;2.80;;;42.10;1.00;;;;;;5061767;28;20413;-76
2022/07/05 15:34:39;;;;;;;8.30;3.53;;;43.10;1.00;;;;;;5085612;28;20279;-75
2022/07/05 15:37:10;;;;;;;5.03;2.80;;;43.80;1.00;;;;;;5068342;28;20191;-77
2022/07/05 15:39:58;;;;;;;1.17;0.80;;;45.10;1.00;;;;;;5073391;28;20171;-77
2022/07/05 15:42:25;;;;;;;2.53;1.93;;;44.90;1.00;;;;;;5074118;28;20420;-76
2022/07/05 15:44:52;;;;;;;6.50;1.03;;;45.30;1.00;;;;;;5073089;28;20420;-77
2022/07/05 15:47:17;;;;;;;1.03;0.80;;;45.60;1.00;;;;;;5073593;28;20426;-77
2022/07/05 15:49:43;;;;;;;3.70;0.97;;;46.00;1.00;;;;;;5073343;28;20980;-72
2022/07/05 15:52:51;;;;;;;1.00;1.00;;;45.80;1.00;;;;;;5069185;28;20186;-81
2022/07/05 15:56:09;;;;;;;4.87;1.07;;;43.00;1.00;;;;;;5065973;28;20238;-80
2022/07/05 15:59:09;;;;;;;2.53;1.10;;;43.90;1.00;;;;;;5052955;28;20433;-80
2022/07/05 16:01:37;;;;;;;4.50;1.00;;;44.80;1.00;;;;;;5067674;28;20442;-78
2022/07/05 16:04:03;;;;;;;1.50;1.30;;;45.60;1.00;;;;;;5082061;28;20431;-79
2022/07/05 16:09:58;;;;;;;1.53;0.90;;;46.20;1.00;;;;;;5056441;28;20190;-80
2022/07/05 16:12:45;;;;;;;1.47;1.03;;;46.80;1.00;;;;;;5058097;28;20779;-80
2022/07/05 16:19:15;;;;;;;1.37;0.83;;;45.60;1.00;;;;;;5062721;28;20404;-80
2022/07/05 16:22:15;;;;;;;7.97;1.10;;;45.60;1.00;;;;;;5063369;28;20425;-79
2022/07/05 16:24:41;;;;;;;6.53;1.20;;;46.70;1.00;;;;;;5071918;28;20492;-79
2022/07/05 16:27:08;;;;;;;38.50;2.13;;;47.40;1.00;;;;;;5069839;28;20464;-78
2022/07/05 16:29:52;;;;;;;6.53;1.00;;;48.10;1.00;;;;;;5067724;28;20710;-78
2022/07/05 16:32:17;;;;;;;6.63;0.93;;;47.00;1.00;;;;;;5085936;28;20438;-77